Time;durP1;ratioP1;P1;durP2;ratioP2;P2;SDS_P1;SDS_P2;PMS_P1;PMS_P2;Temp;Humidity;BMP_temperature;BMP_pressure;BME280_temperature;BME280_humidity;BME280_pressure;Samples;Min_cycle;Max_cycle;Signal;HPM_P1;HPM_P2
2022/01/28 00:00:14;;;;;;;;;;;3.70;99.90;;;;;;5095232;28;19951;-45
2022/01/28 00:05:05;;;;;;;;;;;3.70;99.90;;;;;;5095058;28;20011;-44
2022/01/28 00:07:30;;;;;;;;;;;3.60;99.90;;;;;;5094933;28;20010;-43
2022/01/28 00:09:56;;;;;;;;;;;3.70;99.90;;;;;;5076741;28;20364;-44
2022/01/28 00:12:24;;;;;;;;;;;3.70;99.90;;;;;;5094911;28;19918;-43
2022/01/28 00:15:01;;;;;;;;;;;3.70;99.90;;;;;;5094385;28;20411;-43
2022/01/28 00:39:12;;;;;;;;;;;3.70;99.90;;;;;;5038598;28;19908;-43
2022/01/28 00:41:38;;;;;;;;;;;3.70;99.90;;;;;;5094138;28;19937;-46
2022/01/28 00:44:04;;;;;;;;;;;3.60;99.90;;;;;;5094606;28;19912;-44
2022/01/28 00:46:29;;;;;;;;;;;3.60;99.90;;;;;;5094413;28;20270;-46
2022/01/28 00:48:56;;;;;;;;;;;3.60;99.90;;;;;;5094179;28;19923;-45
2022/01/28 00:51:22;;;;;;;;;;;3.60;99.90;;;;;;5093990;28;20381;-44
2022/01/28 00:53:47;;;;;;;;;;;3.60;99.90;;;;;;5093907;28;19912;-45
2022/01/28 00:56:13;;;;;;;;;;;3.50;99.90;;;;;;5094566;28;20342;-45
2022/01/28 00:58:39;;;;;;;;;;;3.50;99.90;;;;;;5094291;28;19912;-42
2022/01/28 01:01:04;;;;;;;;;;;3.40;99.90;;;;;;5094222;28;20017;-45
2022/01/28 01:03:30;;;;;;;;;;;3.40;99.90;;;;;;5093843;28;19908;-47
2022/01/28 01:05:55;;;;;;;;;;;3.40;99.90;;;;;;5094230;28;19915;-45
2022/01/28 01:08:21;;;;;;;;;;;3.30;99.90;;;;;;5094016;28;19912;-44
2022/01/28 01:10:46;;;;;;;;;;;3.30;99.90;;;;;;5094113;28;19912;-46
2022/01/28 01:13:12;;;;;;;;;;;3.30;99.90;;;;;;5093780;28;19943;-44
2022/01/28 01:15:42;;;;;;;;;;;3.30;99.90;;;;;;5075968;28;19908;-45
2022/01/28 01:18:16;;;;;;;;;;;3.30;99.90;;;;;;5094374;28;20342;-43
2022/01/28 01:23:14;;;;;;;;;;;3.30;99.90;;;;;;5094005;28;19915;-45
2022/01/28 01:28:28;;;;;;;;;;;3.30;99.90;;;;;;5096441;28;19919;-43
2022/01/28 01:30:53;;;;;;;;;;;3.30;99.90;;;;;;5097825;28;19916;-43
2022/01/28 01:33:20;;;;;;;;;;;3.30;99.90;;;;;;5097888;28;19914;-45
2022/01/28 01:35:46;;;;;;;;;;;3.30;99.90;;;;;;5098227;28;19908;-43
2022/01/28 01:38:12;;;;;;;;;;;3.30;99.90;;;;;;5097951;28;19915;-44
2022/01/28 01:40:52;;;;;;;;;;;3.30;99.90;;;;;;5097564;28;19908;-44
2022/01/28 01:54:12;;;;;;;;;;;3.00;99.90;;;;;;5097732;28;19915;-46
2022/01/28 01:56:39;;;;;;;;;;;3.00;99.90;;;;;;5097590;28;19908;-44
2022/01/28 01:59:07;;;;;;;;;;;3.00;99.90;;;;;;5097463;28;19915;-42
2022/01/28 02:01:32;;;;;;;;;;;2.90;99.90;;;;;;5097451;28;19908;-43
2022/01/28 02:03:58;;;;;;;;;;;2.80;99.90;;;;;;5097149;28;19915;-44
2022/01/28 02:06:23;;;;;;;;;;;2.80;99.90;;;;;;5097387;28;19912;-42
2022/01/28 02:08:49;;;;;;;;;;;2.80;99.90;;;;;;5079101;28;19919;-45
2022/01/28 02:11:15;;;;;;;;;;;2.80;99.90;;;;;;5097249;28;19951;-44
2022/01/28 02:13:41;;;;;;;;;;;2.80;99.90;;;;;;5097314;28;19999;-44
2022/01/28 02:16:07;;;;;;;;;;;2.70;99.90;;;;;;5097233;28;19908;-43
2022/01/28 02:18:33;;;;;;;;;;;2.70;99.90;;;;;;5096696;28;20365;-43
2022/01/28 02:21:06;;;;;;;;;;;2.70;99.90;;;;;;5097049;28;19908;-43
2022/01/28 02:23:32;;;;;;;;;;;2.70;99.90;;;;;;5097060;28;19915;-43
2022/01/28 02:25:59;;;;;;;;;;;2.70;99.90;;;;;;5097369;28;19920;-43
2022/01/28 02:28:26;;;;;;;;;;;2.70;99.90;;;;;;5096868;28;19967;-44
2022/01/28 02:30:52;;;;;;;;;;;2.70;99.90;;;;;;5096842;28;19919;-44
2022/01/28 02:33:24;;;;;;;;;;;2.70;99.90;;;;;;5096498;28;19908;-45
2022/01/28 02:35:50;;;;;;;;;;;2.70;99.90;;;;;;5096894;28;19908;-45
2022/01/28 02:38:16;;;;;;;;;;;2.70;99.90;;;;;;5096290;28;20076;-43
2022/01/28 02:40:47;;;;;;;;;;;2.80;99.90;;;;;;5095809;28;19961;-44
2022/01/28 02:43:31;;;;;;;;;;;2.80;99.90;;;;;;5096710;28;20102;-42
2022/01/28 02:46:04;;;;;;;;;;;2.80;99.90;;;;;;5096326;28;19908;-46
2022/01/28 02:48:31;;;;;;;;;;;2.90;99.90;;;;;;5096503;28;19912;-45
2022/01/28 02:53:38;;;;;;;;;;;3.00;99.90;;;;;;5096116;28;19915;-42
2022/01/28 02:56:12;;;;;;;;;;;2.90;99.90;;;;;;5096204;28;19912;-43
2022/01/28 02:58:37;;;;;;;;;;;3.00;99.90;;;;;;5116164;28;20392;-45
2022/01/28 03:01:03;;;;;;;;;;;3.00;99.90;;;;;;5116994;28;19912;-44
2022/01/28 03:03:28;;;;;;;;;;;3.00;99.90;;;;;;5098334;28;19943;-43
2022/01/28 03:05:54;;;;;;;;;;;3.10;99.90;;;;;;5112085;28;19912;-45
2022/01/28 03:08:23;;;;;;;;;;;3.00;99.90;;;;;;5101640;28;19918;-44
2022/01/28 03:13:58;;;;;;;;;;;3.20;99.90;;;;;;5096245;28;20418;-45
2022/01/28 03:16:21;;;;;;;;;;;3.20;99.90;;;;;;5099348;28;19916;-45
2022/01/28 03:18:57;;;;;;;;;;;3.10;99.90;;;;;;5095922;28;19909;-46
2022/01/28 03:23:52;;;;;;;;;;;3.20;99.90;;;;;;5095701;28;19916;-44
2022/01/28 03:26:18;;;;;;;;;;;3.20;99.90;;;;;;5102282;28;19914;-44
2022/01/28 03:28:44;;;;;;;;;;;3.10;99.90;;;;;;5116061;28;19916;-44
2022/01/28 03:31:09;;;;;;;;;;;3.10;99.90;;;;;;5115842;28;20382;-47
2022/01/28 03:33:35;;;;;;;;;;;3.10;99.90;;;;;;5116027;28;20273;-46
2022/01/28 03:36:03;;;;;;;;;;;3.20;99.90;;;;;;5116093;28;19911;-45
2022/01/28 03:38:28;;;;;;;;;;;3.10;99.90;;;;;;5109863;28;19957;-45
2022/01/28 03:40:56;;;;;;;;;;;3.20;99.90;;;;;;5094783;28;19908;-43
2022/01/28 03:43:22;;;;;;;;;;;3.20;99.90;;;;;;5096522;28;19915;-43
2022/01/28 03:45:47;;;;;;;;;;;3.20;99.90;;;;;;5095244;28;19912;-44
2022/01/28 03:48:13;;;;;;;;;;;3.20;99.90;;;;;;5094933;28;19916;-45
2022/01/28 03:50:38;;;;;;;;;;;3.20;99.90;;;;;;5078324;28;20309;-43
2022/01/28 03:53:05;;;;;;;;;;;3.30;99.90;;;;;;5103743;28;19939;-45
2022/01/28 03:55:31;;;;;;;;;;;3.20;99.90;;;;;;5115470;28;19976;-46
2022/01/28 03:57:56;;;;;;;;;;;3.30;99.90;;;;;;5090456;28;20453;-47
2022/01/28 04:00:26;;;;;;;;;;;3.20;99.90;;;;;;5108181;28;19998;-46
2022/01/28 04:03:02;;;;;;;;;;;3.30;99.90;;;;;;5104691;28;19908;-44
2022/01/28 04:06:14;;;;;;;;;;;3.30;99.90;;;;;;5094434;28;19908;-45
2022/01/28 04:13:47;;;;;;;;;;;3.30;99.90;;;;;;5113952;28;19922;-46
2022/01/28 04:18:41;;;;;;;;;;;3.30;99.90;;;;;;5113059;28;20331;-43
2022/01/28 04:21:07;;;;;;;;;;;3.30;99.90;;;;;;5113024;28;20006;-45
2022/01/28 04:23:32;;;;;;;;;;;3.30;99.90;;;;;;5112722;28;20240;-45
2022/01/28 04:25:58;;;;;;;;;;;3.30;99.90;;;;;;5113047;28;19927;-44
2022/01/28 04:28:23;;;;;;;;;;;3.30;99.90;;;;;;5113606;28;20039;-43
2022/01/28 04:30:51;;;;;;;;;;;3.30;99.90;;;;;;5114142;28;20450;-44
2022/01/28 04:33:16;;;;;;;;;;;3.20;99.90;;;;;;5114573;28;20380;-44
2022/01/28 04:35:42;;;;;;;;;;;3.20;99.90;;;;;;5114684;28;20236;-45
2022/01/28 04:40:44;;;;;;;;;;;3.30;99.90;;;;;;5115042;28;19961;-45
2022/01/28 04:43:17;;;;;;;;;;;3.20;99.90;;;;;;5114844;28;19908;-46
2022/01/28 05:01:06;;;;;;;;;;;3.10;99.90;;;;;;5114540;28;19923;-45
2022/01/28 05:04:25;;;;;;;;;;;3.10;99.90;;;;;;5112792;28;19908;-45
2022/01/28 05:17:12;;;;;;;;;;;3.00;99.90;;;;;;5114255;28;19908;-47
2022/01/28 05:25:12;;;;;;;;;;;3.00;99.90;;;;;;5113968;28;19926;-47
2022/01/28 05:27:43;;;;;;;;;;;3.00;99.90;;;;;;5095874;28;19923;-45
2022/01/28 05:30:09;;;;;;;;;;;3.10;99.90;;;;;;5114170;28;19912;-43
2022/01/28 05:32:34;;;;;;;;;;;3.10;99.90;;;;;;5114060;28;20273;-44
2022/01/28 05:35:00;;;;;;;;;;;3.00;99.90;;;;;;5107029;28;19953;-46
2022/01/28 05:37:26;;;;;;;;;;;3.10;99.90;;;;;;5109590;28;19919;-45
2022/01/28 05:39:51;;;;;;;;;;;3.10;99.90;;;;;;5100660;28;19922;-44
2022/01/28 05:42:17;;;;;;;;;;;3.10;99.90;;;;;;5105956;28;19943;-46
2022/01/28 05:44:42;;;;;;;;;;;3.10;99.90;;;;;;5103705;28;19912;-44
2022/01/28 05:47:13;;;;;;;;;;;3.20;99.90;;;;;;5102304;28;19916;-44
2022/01/28 05:49:39;;;;;;;;;;;3.20;99.90;;;;;;5095504;28;20442;-45
2022/01/28 05:52:04;;;;;;;;;;;3.10;99.90;;;;;;5097530;28;20026;-45
2022/01/28 05:54:30;;;;;;;;;;;3.10;99.90;;;;;;5076344;28;20255;-47
2022/01/28 05:56:55;;;;;;;;;;;3.10;99.90;;;;;;5098800;28;20411;-42
2022/01/28 05:59:21;;;;;;;;;;;3.10;99.90;;;;;;5108734;28;19908;-43
2022/01/28 06:01:46;;;;;;;;;;;3.00;99.90;;;;;;5109902;28;19915;-42
2022/01/28 06:04:12;;;;;;;;;;;2.90;99.90;;;;;;5101961;28;19969;-43
2022/01/28 06:06:38;;;;;;;;;;;2.90;99.90;;;;;;5108808;28;19915;-43
2022/01/28 06:09:04;;;;;;;;;;;3.00;99.90;;;;;;5111165;28;19915;-43
2022/01/28 06:11:29;;;;;;;;;;;2.90;99.90;;;;;;5099698;28;19976;-43
2022/01/28 06:13:55;;;;;;;;;;;2.90;99.90;;;;;;5090168;28;19908;-45
2022/01/28 06:16:20;;;;;;;;;;;2.80;99.90;;;;;;5104885;28;19912;-44
2022/01/28 06:18:46;;;;;;;;;;;2.90;99.90;;;;;;5113805;28;19908;-46
2022/01/28 06:21:12;;;;;;;;;;;2.90;99.90;;;;;;5100510;28;20342;-44
2022/01/28 06:23:37;;;;;;;;;;;2.90;99.90;;;;;;5112685;28;19908;-48
2022/01/28 06:26:03;;;;;;;;;;;2.90;99.90;;;;;;5115370;28;19920;-43
2022/01/28 06:28:28;;;;;;;;;;;2.80;99.90;;;;;;5117025;28;19912;-46
2022/01/28 06:30:54;;;;;;;;;;;2.80;99.90;;;;;;5098841;28;20005;-45
2022/01/28 06:33:20;;;;;;;;;;;2.80;99.90;;;;;;5095932;28;19908;-43
2022/01/28 06:35:46;;;;;;;;;;;2.80;99.90;;;;;;5095918;28;20007;-47
2022/01/28 06:38:11;;;;;;;;;;;2.80;99.90;;;;;;5096041;28;19912;-46
2022/01/28 06:40:37;;;;;;;;;;;2.80;99.90;;;;;;5095429;28;19916;-46
2022/01/28 06:43:03;;;;;;;;;;;2.80;99.90;;;;;;5095956;28;19908;-44
2022/01/28 06:45:29;;;;;;;;;;;2.90;99.90;;;;;;5095779;28;19908;-44
2022/01/28 06:47:54;;;;;;;;;;;2.80;99.90;;;;;;5095531;28;19912;-46
2022/01/28 06:50:20;;;;;;;;;;;2.90;99.90;;;;;;5095424;28;19916;-46
2022/01/28 06:52:45;;;;;;;;;;;2.90;99.90;;;;;;5095629;28;20300;-43
2022/01/28 06:55:12;;;;;;;;;;;3.00;99.90;;;;;;5095677;28;20266;-45
2022/01/28 06:57:38;;;;;;;;;;;3.00;99.90;;;;;;5095591;28;19908;-46
2022/01/28 07:00:04;;;;;;;;;;;3.00;99.90;;;;;;5095740;28;20001;-45
2022/01/28 07:02:30;;;;;;;;;;;2.90;99.90;;;;;;5095570;28;19909;-45
2022/01/28 07:04:56;;;;;;;;;;;2.90;99.90;;;;;;5095624;28;20464;-43
2022/01/28 07:07:23;;;;;;;;;;;3.00;99.90;;;;;;5077521;28;19955;-46
2022/01/28 07:09:49;;;;;;;;;;;3.00;99.90;;;;;;5077429;28;19912;-44
2022/01/28 07:12:15;;;;;;;;;;;3.00;99.90;;;;;;5095285;28;19908;-45
2022/01/28 07:14:41;;;;;;;;;;;2.90;99.90;;;;;;5095216;28;19908;-45
2022/01/28 07:17:06;;;;;;;;;;;2.70;99.90;;;;;;5095175;28;19915;-46
2022/01/28 07:19:32;;;;;;;;;;;2.50;99.90;;;;;;5094934;28;19961;-45
2022/01/28 07:21:58;;;;;;;;;;;2.40;99.90;;;;;;5095196;28;19961;-44
2022/01/28 07:24:24;;;;;;;;;;;2.30;99.90;;;;;;5094583;28;20492;-44
2022/01/28 07:26:49;;;;;;;;;;;2.30;99.90;;;;;;5094566;28;19912;-42
2022/01/28 07:29:15;;;;;;;;;;;2.40;99.90;;;;;;5095102;28;19919;-44
2022/01/28 07:31:41;;;;;;;;;;;2.20;99.90;;;;;;5095064;28;19908;-44
2022/01/28 07:34:07;;;;;;;;;;;2.20;99.90;;;;;;5095000;28;19931;-44
2022/01/28 07:36:36;;;;;;;;;;;2.20;99.90;;;;;;5094990;28;19908;-43
2022/01/28 07:39:03;;;;;;;;;;;2.30;99.90;;;;;;5094726;28;19908;-45
2022/01/28 07:41:28;;;;;;;;;;;2.30;99.90;;;;;;5095323;28;19970;-46
2022/01/28 07:43:54;;;;;;;;;;;2.30;99.90;;;;;;5094653;28;20378;-44
2022/01/28 07:46:19;;;;;;;;;;;2.40;99.90;;;;;;5094434;28;19908;-46
2022/01/28 07:48:45;;;;;;;;;;;2.50;99.90;;;;;;5094584;28;19938;-43
2022/01/28 07:51:10;;;;;;;;;;;2.50;99.90;;;;;;5094395;28;19919;-45
2022/01/28 07:53:36;;;;;;;;;;;2.60;99.90;;;;;;5094455;28;19912;-42
2022/01/28 07:56:02;;;;;;;;;;;2.70;99.90;;;;;;5094302;28;20366;-47
2022/01/28 07:58:27;;;;;;;;;;;2.80;99.90;;;;;;5094552;28;19964;-43
2022/01/28 08:00:53;;;;;;;;;;;2.70;99.90;;;;;;5076875;28;19908;-46
2022/01/28 08:03:18;;;;;;;;;;;2.70;99.90;;;;;;5094682;28;20322;-44
2022/01/28 08:05:44;;;;;;;;;;;2.80;99.90;;;;;;5094193;28;19912;-47
2022/01/28 08:08:12;;;;;;;;;;;2.80;99.90;;;;;;5075773;28;19919;-45
2022/01/28 08:10:37;;;;;;;;;;;2.80;99.90;;;;;;5094237;28;19939;-44
2022/01/28 08:13:05;;;;;;;;;;;2.70;99.90;;;;;;5076257;28;20398;-44
2022/01/28 08:15:31;;;;;;;;;;;2.70;99.90;;;;;;5076223;28;20008;-43
2022/01/28 08:17:56;;;;;;;;;;;2.70;99.90;;;;;;5093971;28;19955;-44
2022/01/28 08:20:22;;;;;;;;;;;2.80;99.90;;;;;;5094051;28;19916;-43
2022/01/28 08:22:49;;;;;;;;;;;2.80;99.90;;;;;;5093466;28;19908;-44
2022/01/28 08:25:16;;;;;;;;;;;2.80;99.90;;;;;;5093629;28;19935;-43
2022/01/28 08:27:42;;;;;;;;;;;2.80;99.90;;;;;;5094148;28;19912;-44
2022/01/28 08:30:08;;;;;;;;;;;2.90;99.90;;;;;;5094570;28;19994;-44
2022/01/28 08:32:34;;;;;;;;;;;3.00;99.90;;;;;;5094084;28;20397;-45
2022/01/28 08:34:59;;;;;;;;;;;2.90;99.90;;;;;;5094164;28;19915;-46
2022/01/28 08:37:25;;;;;;;;;;;3.00;99.90;;;;;;5093670;28;20316;-43
2022/01/28 08:39:51;;;;;;;;;;;3.00;99.90;;;;;;5093393;28;19908;-45
2022/01/28 08:42:17;;;;;;;;;;;3.00;99.90;;;;;;5093691;28;19908;-44
2022/01/28 08:44:42;;;;;;;;;;;3.10;99.90;;;;;;5093518;28;20255;-44
2022/01/28 08:47:08;;;;;;;;;;;3.00;99.90;;;;;;5093279;28;19908;-45
2022/01/28 08:49:33;;;;;;;;;;;3.00;99.90;;;;;;5075681;28;19916;-45
2022/01/28 08:52:00;;;;;;;;;;;3.00;99.90;;;;;;5093523;28;19957;-47
2022/01/28 08:54:26;;;;;;;;;;;3.00;99.90;;;;;;5094131;28;19970;-44
2022/01/28 08:56:51;;;;;;;;;;;3.10;99.90;;;;;;5093760;28;19908;-43
2022/01/28 08:59:17;;;;;;;;;;;3.10;99.90;;;;;;5093396;28;20007;-43
2022/01/28 09:01:42;;;;;;;;;;;3.10;99.90;;;;;;5093141;28;19961;-45
2022/01/28 09:04:08;;;;;;;;;;;3.10;99.90;;;;;;5075538;28;20378;-46
2022/01/28 09:06:33;;;;;;;;;;;3.10;99.90;;;;;;5093349;28;19912;-45
2022/01/28 09:09:01;;;;;;;;;;;3.10;99.90;;;;;;5093186;28;19912;-47
2022/01/28 09:13:52;;;;;;;;;;;3.20;99.90;;;;;;5093242;28;19954;-46
2022/01/28 09:16:18;;;;;;;;;;;3.20;99.90;;;;;;5092905;28;19909;-44
2022/01/28 09:18:44;;;;;;;;;;;3.40;99.90;;;;;;5093354;28;19951;-43
2022/01/28 09:21:10;;;;;;;;;;;3.30;99.90;;;;;;5093112;28;19915;-47
2022/01/28 09:23:35;;;;;;;;;;;3.50;99.90;;;;;;5093352;28;19908;-47
2022/01/28 09:26:01;;;;;;;;;;;3.50;99.90;;;;;;5093598;28;20307;-44
2022/01/28 09:28:27;;;;;;;;;;;3.70;99.90;;;;;;5093044;28;19919;-44
2022/01/28 09:30:52;;;;;;;;;;;3.70;99.90;;;;;;5075079;28;19919;-45
2022/01/28 09:33:18;;;;;;;;;;;3.50;99.90;;;;;;5093169;28;19992;-46
2022/01/28 09:35:44;;;;;;;;;;;3.50;99.90;;;;;;5093300;28;19912;-47
2022/01/28 09:38:10;;;;;;;;;;;3.50;99.90;;;;;;5074984;28;19908;-46
2022/01/28 09:40:36;;;;;;;;;;;3.40;99.90;;;;;;5093258;28;19954;-48
2022/01/28 09:43:04;;;;;;;;;;;3.40;99.90;;;;;;5093868;28;20002;-45
2022/01/28 09:45:30;;;;;;;;;;;3.50;99.90;;;;;;5093001;28;19908;-47
2022/01/28 09:47:56;;;;;;;;;;;3.70;99.90;;;;;;5092858;28;20003;-45
2022/01/28 09:50:23;;;;;;;;;;;3.60;99.90;;;;;;5097347;28;19998;-44
2022/01/28 09:52:49;;;;;;;;;;;3.60;99.90;;;;;;5097030;28;19908;-47
2022/01/28 09:55:15;;;;;;;;;;;3.70;99.90;;;;;;5097021;28;19908;-46
2022/01/28 09:57:40;;;;;;;;;;;3.70;99.90;;;;;;5096948;28;19915;-45
2022/01/28 10:00:08;;;;;;;;;;;3.80;99.90;;;;;;5097251;28;19908;-44
2022/01/28 10:03:09;;;;;;;;;;;3.80;99.90;;;;;;5096918;28;20308;-47
2022/01/28 10:05:39;;;;;;;;;;;3.90;99.90;;;;;;4997952;28;19910;-45
2022/01/28 10:08:21;;;;;;;;;;;3.90;99.90;;;;;;5081722;28;19938;-47
2022/01/28 10:10:46;;;;;;;;;;;3.90;99.90;;;;;;5096643;28;20342;-45
2022/01/28 10:13:16;;;;;;;;;;;4.00;99.90;;;;;;5096602;28;20003;-45
2022/01/28 10:15:51;;;;;;;;;;;3.80;99.90;;;;;;5096448;28;19943;-44
2022/01/28 10:18:17;;;;;;;;;;;3.80;99.90;;;;;;5078359;28;20097;-45
2022/01/28 10:20:43;;;;;;;;;;;3.90;99.90;;;;;;5096435;28;20341;-44
2022/01/28 10:23:11;;;;;;;;;;;3.80;99.90;;;;;;5096365;28;19961;-48
2022/01/28 10:25:38;;;;;;;;;;;3.80;99.90;;;;;;5096441;28;20255;-46
2022/01/28 10:28:08;;;;;;;;;;;3.80;99.90;;;;;;5096203;28;19916;-44
2022/01/28 10:30:41;;;;;;;;;;;4.00;99.90;;;;;;5095996;28;20254;-47
2022/01/28 10:33:09;;;;;;;;;;;3.90;99.90;;;;;;5096414;28;19908;-46
2022/01/28 10:35:35;;;;;;;;;;;3.90;99.90;;;;;;5096031;28;19915;-46
2022/01/28 10:38:02;;;;;;;;;;;3.90;99.90;;;;;;5077621;28;20277;-45
2022/01/28 10:40:28;;;;;;;;;;;3.90;99.90;;;;;;5077770;28;19959;-48
2022/01/28 10:42:53;;;;;;;;;;;3.90;99.90;;;;;;5095854;28;19962;-45
2022/01/28 10:45:20;;;;;;;;;;;4.00;99.90;;;;;;5095911;28;19908;-44
2022/01/28 10:47:50;;;;;;;;;;;3.90;99.90;;;;;;5095586;28;19912;-45
2022/01/28 10:50:16;;;;;;;;;;;3.90;99.90;;;;;;5095286;28;19912;-44
2022/01/28 10:52:42;;;;;;;;;;;4.10;99.90;;;;;;5077427;28;20007;-47
2022/01/28 10:55:14;;;;;;;;;;;4.20;99.90;;;;;;5095595;28;19947;-43
2022/01/28 10:57:39;;;;;;;;;;;4.20;99.90;;;;;;5095049;28;19918;-48
2022/01/28 11:00:05;;;;;;;;;;;4.30;99.90;;;;;;5094075;28;19908;-44
2022/01/28 11:02:31;;;;;;;;;;;4.30;99.90;;;;;;5094994;28;19908;-46
2022/01/28 11:04:57;;;;;;;;;;;4.30;99.90;;;;;;5095187;28;19944;-47
2022/01/28 11:07:23;;;;;;;;;;;4.30;99.90;;;;;;5095071;28;20037;-48
2022/01/28 11:09:49;;;;;;;;;;;4.20;99.90;;;;;;5095452;28;19912;-46
2022/01/28 11:12:16;;;;;;;;;;;4.20;99.90;;;;;;5077015;28;19908;-43
2022/01/28 11:14:42;;;;;;;;;;;4.10;99.90;;;;;;5095438;28;19912;-49
2022/01/28 11:17:10;;;;;;;;;;;4.10;99.90;;;;;;5095234;28;19928;-46
2022/01/28 11:19:37;;;;;;;;;;;4.20;99.90;;;;;;5095147;28;19915;-46
2022/01/28 11:22:08;;;;;;;;;;;4.20;99.90;;;;;;5094897;28;19908;-47
2022/01/28 11:24:52;;;;;;;;;;;4.20;99.90;;;;;;5094631;28;19959;-46
2022/01/28 11:27:27;;;;;;;;;;;4.20;99.90;;;;;;5094724;28;19916;-44
2022/01/28 11:30:11;;;;;;;;;;;4.10;99.90;;;;;;5094795;28;20033;-44
2022/01/28 11:32:51;;;;;;;;;;;4.10;99.90;;;;;;5095025;28;20003;-49
2022/01/28 11:35:18;;;;;;;;;;;4.20;99.90;;;;;;5094951;28;19912;-48
2022/01/28 11:37:44;;;;;;;;;;;4.10;99.90;;;;;;5095014;28;19912;-47
2022/01/28 11:40:11;;;;;;;;;;;4.10;99.90;;;;;;5094900;28;19909;-46
2022/01/28 11:42:36;;;;;;;;;;;4.10;99.90;;;;;;5094448;28;19908;-45
2022/01/28 11:45:04;;;;;;;;;;;4.20;99.90;;;;;;5094513;28;19914;-46
2022/01/28 11:47:35;;;;;;;;;;;4.40;99.90;;;;;;5094751;28;19912;-46
2022/01/28 11:50:08;;;;;;;;;;;4.50;99.90;;;;;;5095073;28;19912;-44
2022/01/28 11:52:43;;;;;;;;;;;4.50;99.90;;;;;;5076157;28;20024;-46
2022/01/28 11:55:15;;;;;;;;;;;4.50;99.90;;;;;;5094543;28;19908;-44
2022/01/28 11:57:59;;;;;;;;;;;4.50;99.90;;;;;;5094085;28;19908;-44
2022/01/28 12:00:27;;;;;;;;;;;4.40;99.90;;;;;;5076285;28;19908;-45
2022/01/28 12:02:53;;;;;;;;;;;4.40;99.90;;;;;;5094236;28;20279;-44
2022/01/28 12:05:25;;;;;;;;;;;4.40;99.90;;;;;;5094139;28;19915;-48
2022/01/28 12:07:52;;;;;;;;;;;4.40;99.90;;;;;;5094115;28;19918;-44
2022/01/28 12:10:18;;;;;;;;;;;4.40;99.90;;;;;;5093833;28;20367;-47
2022/01/28 12:12:45;;;;;;;;;;;4.30;99.90;;;;;;5075676;28;19916;-45
2022/01/28 12:15:17;;;;;;;;;;;4.40;99.90;;;;;;5094291;28;19908;-45
2022/01/28 12:17:44;;;;;;;;;;;4.40;99.90;;;;;;5094152;28;19962;-45
2022/01/28 12:20:09;;;;;;;;;;;4.40;99.90;;;;;;5094183;28;19919;-47
2022/01/28 12:22:35;;;;;;;;;;;4.30;99.90;;;;;;5093852;28;19908;-50
2022/01/28 12:25:00;;;;;;;;;;;4.40;99.90;;;;;;5093747;28;19920;-43
2022/01/28 12:27:33;;;;;;;;;;;4.50;99.90;;;;;;5093998;28;19919;-46
2022/01/28 12:30:00;;;;;;;;;;;4.40;99.90;;;;;;5093707;28;20010;-46
2022/01/28 12:32:25;;;;;;;;;;;4.40;99.90;;;;;;5093779;28;19954;-48
2022/01/28 12:34:51;;;;;;;;;;;4.40;99.90;;;;;;5094063;28;19908;-47
2022/01/28 12:37:22;;;;;;;;;;;4.40;99.90;;;;;;5075527;28;19915;-44
2022/01/28 12:39:59;;;;;;;;;;;4.30;99.90;;;;;;5093874;28;19914;-47
2022/01/28 12:42:26;;;;;;;;;;;4.20;99.90;;;;;;5093569;28;20334;-45
2022/01/28 12:44:56;;;;;;;;;;;4.30;99.90;;;;;;5075546;28;19915;-46
2022/01/28 12:47:22;;;;;;;;;;;4.40;99.90;;;;;;5093170;28;19916;-43
2022/01/28 12:49:55;;;;;;;;;;;4.30;99.90;;;;;;5093675;28;19912;-45
2022/01/28 12:52:20;;;;;;;;;;;4.20;99.90;;;;;;5075411;28;19961;-47
2022/01/28 12:54:46;;;;;;;;;;;4.10;99.90;;;;;;5093007;28;20330;-47
2022/01/28 12:57:17;;;;;;;;;;;4.20;99.90;;;;;;5075336;28;19915;-45
2022/01/28 12:59:45;;;;;;;;;;;4.00;99.90;;;;;;5093538;28;20022;-43
2022/01/28 13:02:11;;;;;;;;;;;4.20;99.90;;;;;;5093467;28;19908;-48
2022/01/28 13:09:56;;;;;;;;;;;4.30;99.90;;;;;;5093254;28;19919;-45
2022/01/28 13:12:23;;;;;;;;;;;4.40;99.90;;;;;;5093165;28;19915;-47
2022/01/28 13:14:49;;;;;;;;;;;4.50;99.90;;;;;;5093391;28;19908;-47
2022/01/28 13:17:17;;;;;;;;;;;4.30;99.90;;;;;;5093284;28;20032;-46
2022/01/28 13:19:51;;;;;;;;;;;4.30;99.90;;;;;;5075299;28;19958;-44
2022/01/28 13:22:21;;;;;;;;;;;4.10;99.90;;;;;;5093703;28;19908;-44
2022/01/28 13:24:50;;;;;;;;;;;4.10;99.90;;;;;;5096483;28;20038;-45
2022/01/28 13:27:17;;;;;;;;;;;4.10;99.90;;;;;;5097069;28;19931;-46
2022/01/28 13:29:44;;;;;;;;;;;4.20;99.90;;;;;;5097132;28;19935;-45
2022/01/28 13:32:16;;;;;;;;;;;4.30;99.90;;;;;;5079151;28;19908;-50
2022/01/28 13:34:46;;;;;;;;;;;4.50;99.90;;;;;;5097007;28;19908;-50
2022/01/28 13:37:12;;;;;;;;;;;4.50;99.90;;;;;;5078815;28;19908;-47
2022/01/28 13:39:41;;;;;;;;;;;4.60;99.90;;;;;;5097117;28;19908;-45
2022/01/28 13:42:12;;;;;;;;;;;4.50;99.90;;;;;;5096865;28;19908;-44
2022/01/28 13:44:39;;;;;;;;;;;4.60;99.90;;;;;;5096505;28;19908;-50
2022/01/28 13:47:05;;;;;;;;;;;4.60;99.90;;;;;;5096336;28;19916;-46
2022/01/28 13:49:32;;;;;;;;;;;4.60;99.90;;;;;;5096198;28;20263;-47
2022/01/28 13:52:08;;;;;;;;;;;4.50;99.90;;;;;;5096956;28;19908;-44
2022/01/28 13:54:33;;;;;;;;;;;4.40;99.90;;;;;;5078577;28;19974;-45
2022/01/28 13:57:00;;;;;;;;;;;4.40;99.90;;;;;;5096801;28;19994;-44
2022/01/28 13:59:29;;;;;;;;;;;4.40;99.90;;;;;;5096331;28;19908;-46
2022/01/28 14:01:56;;;;;;;;;;;4.30;99.90;;;;;;5096787;28;20316;-45
2022/01/28 14:04:23;;;;;;;;;;;4.40;99.90;;;;;;5096439;28;19908;-45
2022/01/28 14:06:48;;;;;;;;;;;4.40;99.90;;;;;;5096682;28;19946;-46
2022/01/28 14:09:17;;;;;;;;;;;4.30;99.90;;;;;;5077737;28;20359;-46
2022/01/28 14:11:46;;;;;;;;;;;4.30;99.90;;;;;;5078308;28;20276;-44
2022/01/28 14:14:16;;;;;;;;;;;4.40;99.90;;;;;;5096334;28;19912;-44
2022/01/28 14:16:43;;;;;;;;;;;4.50;99.90;;;;;;5096124;28;20009;-48
2022/01/28 14:19:10;;;;;;;;;;;4.50;99.90;;;;;;5095671;28;20015;-44
2022/01/28 14:21:36;;;;;;;;;;;4.60;99.90;;;;;;5096148;28;19914;-45
2022/01/28 14:24:02;;;;;;;;;;;4.60;99.90;;;;;;5096036;28;19908;-44
2022/01/28 14:26:27;;;;;;;;;;;4.60;99.90;;;;;;5096050;28;20218;-44
2022/01/28 14:31:21;;;;;;;;;;;4.80;99.90;;;;;;5096331;28;20381;-42
2022/01/28 14:33:49;;;;;;;;;;;4.70;99.90;;;;;;5096435;28;19908;-46
2022/01/28 14:36:15;;;;;;;;;;;4.60;99.90;;;;;;5095620;28;19908;-44
2022/01/28 14:38:42;;;;;;;;;;;4.60;99.90;;;;;;5095749;28;19998;-50
2022/01/28 14:41:09;;;;;;;;;;;4.40;99.90;;;;;;5095733;28;19915;-47
2022/01/28 14:43:35;;;;;;;;;;;4.50;99.90;;;;;;5095662;28;20347;-46
2022/01/28 14:46:00;;;;;;;;;;;4.50;99.90;;;;;;5077770;28;19951;-47
2022/01/28 14:48:28;;;;;;;;;;;4.50;99.90;;;;;;5095690;28;19919;-45
2022/01/28 14:50:54;;;;;;;;;;;4.50;99.90;;;;;;5095366;28;19912;-47
2022/01/28 14:53:19;;;;;;;;;;;4.50;99.90;;;;;;5095459;28;19908;-45
2022/01/28 14:55:45;;;;;;;;;;;4.60;99.90;;;;;;5095984;28;20286;-45
2022/01/28 14:58:11;;;;;;;;;;;4.50;99.90;;;;;;5095536;28;19908;-46
2022/01/28 15:00:36;;;;;;;;;;;4.50;99.90;;;;;;5095420;28;20042;-44
2022/01/28 15:03:02;;;;;;;;;;;4.40;99.90;;;;;;5095195;28;20326;-44
2022/01/28 15:05:29;;;;;;;;;;;4.30;99.90;;;;;;5076863;28;19908;-48
2022/01/28 15:07:55;;;;;;;;;;;4.30;99.90;;;;;;5094978;28;19916;-44
2022/01/28 15:10:27;;;;;;;;;;;4.30;99.90;;;;;;5095123;28;19951;-48
2022/01/28 15:12:55;;;;;;;;;;;4.30;99.90;;;;;;5095022;28;19908;-48
2022/01/28 15:15:21;;;;;;;;;;;4.30;99.90;;;;;;5094911;28;19908;-45
2022/01/28 15:17:46;;;;;;;;;;;4.30;99.90;;;;;;5094790;28;20014;-48
2022/01/28 15:20:12;;;;;;;;;;;4.10;99.90;;;;;;5094713;28;19908;-48
2022/01/28 15:22:38;;;;;;;;;;;4.00;99.90;;;;;;5095121;28;19912;-44
2022/01/28 15:25:04;;;;;;;;;;;3.90;99.90;;;;;;5094592;28;19931;-45
2022/01/28 15:27:31;;;;;;;;;;;3.80;99.90;;;;;;5094962;28;20359;-45
2022/01/28 15:37:54;;;;;;;;;;;3.00;99.90;;;;;;5094631;28;20381;-46
2022/01/28 15:40:19;;;;;;;;;;;3.20;99.90;;;;;;5076454;28;19952;-45
2022/01/28 15:42:46;;;;;;;;;;;3.20;99.90;;;;;;5094958;28;20011;-46
2022/01/28 15:45:11;;;;;;;;;;;3.40;99.90;;;;;;5094823;28;19909;-44
2022/01/28 15:47:39;;;;;;;;;;;3.40;99.90;;;;;;5093649;28;19964;-46
2022/01/28 15:50:04;;;;;;;;;;;3.30;99.90;;;;;;5094773;28;19916;-46
2022/01/28 15:52:31;;;;;;;;;;;3.30;99.90;;;;;;5096580;28;20310;-46
2022/01/28 15:54:56;;;;;;;;;;;3.30;99.90;;;;;;5082489;28;19922;-43
2022/01/28 15:57:22;;;;;;;;;;;3.30;99.90;;;;;;5107080;28;19916;-45
2022/01/28 15:59:47;;;;;;;;;;;3.20;99.90;;;;;;5085485;28;19915;-47
2022/01/28 16:02:13;;;;;;;;;;;3.20;99.90;;;;;;5093956;28;19912;-46
2022/01/28 16:04:41;;;;;;;;;;;3.30;99.90;;;;;;5112100;28;19918;-44
2022/01/28 16:07:06;;;;;;;;;;;3.40;99.90;;;;;;5098876;28;19911;-50
2022/01/28 16:09:32;;;;;;;;;;;3.50;99.90;;;;;;5103706;28;19920;-44
2022/01/28 16:12:01;;;;;;;;;;;3.60;99.90;;;;;;5097379;28;20385;-45
2022/01/28 16:19:37;;;;;;;;;;;3.40;99.90;;;;;;5104005;28;20325;-43
2022/01/28 16:22:03;;;;;;;;;;;2.80;99.90;;;;;;5095806;28;19908;-43
2022/01/28 16:24:29;;;;;;;;;;;2.10;99.90;;;;;;5075393;28;19920;-43